Nowlin, South Dakota
Current Conditions -  °F | °C
As of 2:55 AM on Saturday 29 Nov 2014 (Local Time) from KPHP Reporting Station
Clear Clear  
Wind Chill: 34°   Ceiling: Unl
Heat Index: 40°   Visibility: 10mi
Dew Point: 24°   Wind: 8mph
Humidity: 53%   Direction: 270°W
Pressure: 29.43"   Gusts: NA
Location:  44.3169°N, 101.368°W
Report Text: KPHP 290955Z AUTO 27007KT 10SM CLR 04/M04 A2943 RMK AO2 SLP964 T00441044
Loading
Personal Weather Stations






























Interactive Weather Map New forecast layout! Learn more

10-Day Weather Forecast

Advertisements
Track Severe Weather on mobile